Time;durP1;ratioP1;P1;durP2;ratioP2;P2;SDS_P1;SDS_P2;PMS_P1;PMS_P2;Temp;Humidity;BMP_temperature;BMP_pressure;BME280_temperature;BME280_humidity;BME280_pressure;Samples;Min_cycle;Max_cycle;Signal;HPM_P1;HPM_P2
2022/06/07 00:02:07;;;;;;;5.70;4.32;;;;;;;;;;4978659;28;20038;-66
2022/06/07 00:04:32;;;;;;;4.88;3.97;;;;;;;;;;4976238;28;20406;-66
2022/06/07 00:06:58;;;;;;;6.60;4.60;;;;;;;;;;4978899;28;20078;-70
2022/06/07 00:09:23;;;;;;;5.80;4.32;;;;;;;;;;4978359;28;20018;-69
2022/06/07 00:11:49;;;;;;;5.85;4.90;;;;;;;;;;4957951;28;20086;-67
2022/06/07 00:14:14;;;;;;;5.35;4.55;;;;;;;;;;4965309;28;20022;-69
2022/06/07 00:16:40;;;;;;;10.32;4.45;;;;;;;;;;4975819;28;20025;-65
2022/06/07 00:19:05;;;;;;;7.38;4.65;;;;;;;;;;4965748;28;21216;-67
2022/06/07 00:21:30;;;;;;;6.70;4.90;;;;;;;;;;4976340;28;20053;-66
2022/06/07 00:23:57;;;;;;;6.43;5.72;;;;;;;;;;4978583;28;20102;-66
2022/06/07 00:26:22;;;;;;;5.38;4.88;;;;;;;;;;4977283;28;20044;-68
2022/06/07 00:28:48;;;;;;;6.22;4.85;;;;;;;;;;4967898;28;20026;-70
2022/06/07 00:31:14;;;;;;;10.10;5.18;;;;;;;;;;4965444;28;20035;-68
2022/06/07 00:33:39;;;;;;;5.57;4.90;;;;;;;;;;4958531;28;20026;-71
2022/06/07 00:36:05;;;;;;;5.22;4.72;;;;;;;;;;4958791;28;20038;-70
2022/06/07 00:38:31;;;;;;;5.72;5.15;;;;;;;;;;4977125;28;20113;-66
2022/06/07 00:40:56;;;;;;;7.10;5.13;;;;;;;;;;4976871;28;20446;-68
2022/06/07 00:43:24;;;;;;;5.55;4.97;;;;;;;;;;4977996;28;20038;-71
2022/06/07 00:45:50;;;;;;;7.88;5.30;;;;;;;;;;4978128;28;20506;-69
2022/06/07 00:48:16;;;;;;;6.65;5.38;;;;;;;;;;4962623;28;20117;-65
2022/06/07 00:50:44;;;;;;;7.55;6.03;;;;;;;;;;4973156;28;20492;-66
2022/06/07 00:53:36;;;;;;;13.20;6.00;;;;;;;;;;4962363;28;20034;-66
2022/06/07 00:56:01;;;;;;;5.85;5.25;;;;;;;;;;4969292;28;20405;-66
2022/06/07 00:58:28;;;;;;;5.80;5.18;;;;;;;;;;4977045;28;20022;-69
2022/06/07 01:00:53;;;;;;;6.13;5.43;;;;;;;;;;4975240;28;20027;-70
2022/06/07 01:03:20;;;;;;;6.45;5.82;;;;;;;;;;4977214;28;20038;-67
2022/06/07 01:05:46;;;;;;;9.40;5.93;;;;;;;;;;4961339;28;20126;-68
2022/06/07 01:10:56;;;;;;;6.75;5.38;;;;;;;;;;4976558;28;20037;-68
2022/06/07 01:13:22;;;;;;;6.10;5.50;;;;;;;;;;4976640;28;20034;-67
2022/06/07 01:15:48;;;;;;;6.95;5.60;;;;;;;;;;4977695;28;21094;-69
2022/06/07 01:18:14;;;;;;;6.88;5.82;;;;;;;;;;4972423;28;20089;-68
2022/06/07 01:20:40;;;;;;;7.40;5.45;;;;;;;;;;4960640;28;20077;-65
2022/06/07 01:23:07;;;;;;;6.20;5.60;;;;;;;;;;4964487;28;20034;-66
2022/06/07 01:25:32;;;;;;;6.50;4.82;;;;;;;;;;4977351;28;20030;-67
2022/06/07 01:27:58;;;;;;;5.65;5.05;;;;;;;;;;4974608;28;20042;-70
2022/06/07 01:30:24;;;;;;;8.63;5.75;;;;;;;;;;4978275;28;20064;-69
2022/06/07 01:32:50;;;;;;;5.63;5.13;;;;;;;;;;4977092;28;20038;-67
2022/06/07 01:35:15;;;;;;;5.50;5.00;;;;;;;;;;4965922;28;20102;-66
2022/06/07 01:37:41;;;;;;;4.85;4.28;;;;;;;;;;4963849;28;20046;-71
2022/06/07 01:42:50;;;;;;;5.70;5.20;;;;;;;;;;4974952;28;20069;-70
2022/06/07 01:45:16;;;;;;;5.43;4.82;;;;;;;;;;4962195;28;20070;-66
2022/06/07 01:47:41;;;;;;;5.18;4.70;;;;;;;;;;4975594;28;20053;-68
2022/06/07 01:50:08;;;;;;;6.65;5.35;;;;;;;;;;4964675;28;20034;-66
2022/06/07 01:52:35;;;;;;;5.57;4.97;;;;;;;;;;4968350;28;20035;-67
2022/06/07 01:55:00;;;;;;;6.45;5.47;;;;;;;;;;4975579;28;20033;-71
2022/06/07 01:57:26;;;;;;;7.50;4.97;;;;;;;;;;4976450;28;20054;-65
2022/06/07 01:59:51;;;;;;;5.68;5.10;;;;;;;;;;4976253;28;20049;-70
2022/06/07 02:02:17;;;;;;;7.03;5.10;;;;;;;;;;4975440;28;20034;-69
2022/06/07 02:04:43;;;;;;;5.65;5.10;;;;;;;;;;4970752;28;20106;-66
2022/06/07 02:07:08;;;;;;;7.22;5.07;;;;;;;;;;4964944;28;20031;-68
2022/06/07 02:09:34;;;;;;;5.47;4.80;;;;;;;;;;4976401;28;20031;-68
2022/06/07 02:12:00;;;;;;;6.00;5.15;;;;;;;;;;4974535;28;20035;-70
2022/06/07 02:14:26;;;;;;;5.03;4.47;;;;;;;;;;4977145;28;20080;-72
2022/06/07 02:16:52;;;;;;;5.88;4.93;;;;;;;;;;4973998;28;20370;-68
2022/06/07 02:19:17;;;;;;;10.90;5.47;;;;;;;;;;4957268;28;20038;-66
2022/06/07 02:21:42;;;;;;;6.72;5.20;;;;;;;;;;4956021;28;20037;-65
2022/06/07 02:24:08;;;;;;;5.85;4.65;;;;;;;;;;4954064;28;20042;-68
2022/06/07 02:26:43;;;;;;;5.15;4.65;;;;;;;;;;4958669;28;20029;-67
2022/06/07 02:29:13;;;;;;;5.43;4.70;;;;;;;;;;4957560;28;20354;-65
2022/06/07 02:31:40;;;;;;;7.35;5.07;;;;;;;;;;4971648;28;20034;-66
2022/06/07 02:34:06;;;;;;;5.25;4.47;;;;;;;;;;4975307;28;20030;-67
2022/06/07 02:36:31;;;;;;;5.00;4.40;;;;;;;;;;4975066;28;20026;-66
2022/06/07 02:38:57;;;;;;;5.85;5.35;;;;;;;;;;4962483;28;20073;-72
2022/06/07 02:41:24;;;;;;;6.53;4.88;;;;;;;;;;4972258;28;20073;-72
2022/06/07 02:43:49;;;;;;;6.43;4.55;;;;;;;;;;4973751;28;20062;-66
2022/06/07 02:46:15;;;;;;;5.68;4.95;;;;;;;;;;4974272;28;20081;-66
2022/06/07 02:48:40;;;;;;;5.10;4.60;;;;;;;;;;4976473;28;20018;-66
2022/06/07 02:51:05;;;;;;;8.10;5.47;;;;;;;;;;4976344;28;20041;-67
2022/06/07 02:53:31;;;;;;;5.88;4.47;;;;;;;;;;4976218;28;20038;-68
2022/06/07 02:55:56;;;;;;;5.63;4.70;;;;;;;;;;4975588;28;20047;-70
2022/06/07 02:58:22;;;;;;;9.90;5.07;;;;;;;;;;4975633;28;20015;-72
2022/06/07 03:00:47;;;;;;;5.15;4.63;;;;;;;;;;4964357;28;20502;-67
2022/06/07 03:03:13;;;;;;;5.13;4.30;;;;;;;;;;4969316;28;20038;-71
2022/06/07 03:05:38;;;;;;;5.40;4.90;;;;;;;;;;4972946;28;20582;-69
2022/06/07 03:08:03;;;;;;;5.50;4.90;;;;;;;;;;4957861;28;20026;-71
2022/06/07 03:10:29;;;;;;;5.75;4.75;;;;;;;;;;4975418;28;20026;-66
2022/06/07 03:12:54;;;;;;;5.00;4.18;;;;;;;;;;4972531;28;20054;-66
2022/06/07 03:15:20;;;;;;;4.88;4.47;;;;;;;;;;4976274;28;20113;-66
2022/06/07 03:17:45;;;;;;;5.63;5.10;;;;;;;;;;4974800;28;20054;-67
2022/06/07 03:20:11;;;;;;;6.10;4.90;;;;;;;;;;4974777;28;20062;-69
2022/06/07 03:22:37;;;;;;;5.25;4.72;;;;;;;;;;4975750;28;20054;-68
2022/06/07 03:25:05;;;;;;;5.50;4.95;;;;;;;;;;4977096;28;20027;-72
2022/06/07 03:27:31;;;;;;;6.70;4.55;;;;;;;;;;4975846;28;20049;-66
2022/06/07 03:29:57;;;;;;;6.15;4.68;;;;;;;;;;4975541;28;20101;-68
2022/06/07 03:32:22;;;;;;;6.00;4.78;;;;;;;;;;4975647;28;20181;-67
2022/06/07 03:34:47;;;;;;;7.45;5.70;;;;;;;;;;4974946;28;20125;-70
2022/06/07 03:37:13;;;;;;;6.22;4.90;;;;;;;;;;4973573;28;20038;-67
2022/06/07 03:39:38;;;;;;;6.13;5.07;;;;;;;;;;4974751;28;20018;-66
2022/06/07 03:42:04;;;;;;;6.65;4.55;;;;;;;;;;4973879;28;20035;-68
2022/06/07 03:44:29;;;;;;;6.60;4.78;;;;;;;;;;4971828;28;20027;-66
2022/06/07 03:46:55;;;;;;;6.32;5.22;;;;;;;;;;4962665;28;20026;-66
2022/06/07 03:49:20;;;;;;;7.05;5.85;;;;;;;;;;4970775;28;20026;-65
2022/06/07 03:51:47;;;;;;;6.10;5.50;;;;;;;;;;4974259;28;20461;-69
2022/06/07 03:54:13;;;;;;;6.45;5.57;;;;;;;;;;4974173;28;20104;-70
2022/06/07 03:56:38;;;;;;;5.10;4.55;;;;;;;;;;4975614;28;20192;-66
2022/06/07 03:59:04;;;;;;;5.97;4.90;;;;;;;;;;4975497;28;20019;-66
2022/06/07 04:01:29;;;;;;;5.00;4.50;;;;;;;;;;4974479;28;20034;-67
2022/06/07 04:03:56;;;;;;;6.70;5.22;;;;;;;;;;4973512;28;20033;-67
2022/06/07 04:06:21;;;;;;;5.00;4.50;;;;;;;;;;4972686;28;20033;-68
2022/06/07 04:08:47;;;;;;;5.72;4.95;;;;;;;;;;4955790;28;20628;-71
2022/06/07 04:11:14;;;;;;;7.10;5.13;;;;;;;;;;4957473;28;20465;-66
2022/06/07 04:13:39;;;;;;;5.82;5.22;;;;;;;;;;4957079;28;20122;-66
2022/06/07 04:16:09;;;;;;;7.50;5.30;;;;;;;;;;4956392;28;20035;-67
2022/06/07 04:18:35;;;;;;;7.00;5.55;;;;;;;;;;4958852;28;20114;-67
2022/06/07 04:21:00;;;;;;;6.82;5.85;;;;;;;;;;4959265;28;20019;-68
2022/06/07 04:23:26;;;;;;;6.43;5.28;;;;;;;;;;4960661;28;20358;-68
2022/06/07 04:25:51;;;;;;;7.85;5.35;;;;;;;;;;4969481;28;20090;-70
2022/06/07 04:28:17;;;;;;;7.25;5.28;;;;;;;;;;4979715;28;20030;-68
2022/06/07 04:30:43;;;;;;;6.18;5.28;;;;;;;;;;4978717;28;20021;-71
2022/06/07 04:33:09;;;;;;;7.45;5.93;;;;;;;;;;4979478;28;20029;-65
2022/06/07 04:35:34;;;;;;;9.23;5.85;;;;;;;;;;4976624;28;20031;-66
2022/06/07 04:37:59;;;;;;;7.25;6.28;;;;;;;;;;4975215;28;20034;-68
2022/06/07 04:40:25;;;;;;;8.57;6.20;;;;;;;;;;4977739;28;20105;-69
2022/06/07 04:42:50;;;;;;;10.00;6.18;;;;;;;;;;4963289;28;20065;-64
2022/06/07 04:45:16;;;;;;;8.32;6.47;;;;;;;;;;4977059;28;20386;-64
2022/06/07 04:47:42;;;;;;;7.68;6.10;;;;;;;;;;4974482;28;20031;-63
2022/06/07 04:50:09;;;;;;;8.30;6.78;;;;;;;;;;4977442;28;20027;-66
2022/06/07 04:52:34;;;;;;;8.45;6.00;;;;;;;;;;4977099;28;20034;-67
2022/06/07 04:54:59;;;;;;;7.53;6.50;;;;;;;;;;4977248;28;20019;-66
2022/06/07 04:57:25;;;;;;;6.43;5.70;;;;;;;;;;4977949;28;20050;-68
2022/06/07 04:59:50;;;;;;;8.25;6.00;;;;;;;;;;4976134;28;20022;-66
2022/06/07 05:02:15;;;;;;;6.20;5.60;;;;;;;;;;4977383;28;20046;-64
2022/06/07 05:04:41;;;;;;;10.27;6.63;;;;;;;;;;4974797;28;20370;-67
2022/06/07 05:07:06;;;;;;;8.32;6.63;;;;;;;;;;4975314;28;20031;-66
2022/06/07 05:09:31;;;;;;;11.82;7.20;;;;;;;;;;4963441;28;20109;-67
2022/06/07 05:11:58;;;;;;;11.27;6.35;;;;;;;;;;4972647;28;20450;-65
2022/06/07 05:14:23;;;;;;;10.93;7.43;;;;;;;;;;4976187;28;20018;-64
2022/06/07 05:16:49;;;;;;;9.00;6.75;;;;;;;;;;4969754;28;20453;-65
2022/06/07 05:19:15;;;;;;;8.95;6.53;;;;;;;;;;4967191;28;20089;-66
2022/06/07 05:21:41;;;;;;;13.20;6.80;;;;;;;;;;4974273;28;20038;-72
2022/06/07 05:24:06;;;;;;;10.15;7.55;;;;;;;;;;4975878;28;20069;-65
2022/06/07 05:26:34;;;;;;;9.55;7.30;;;;;;;;;;4975887;28;20030;-65
2022/06/07 05:29:00;;;;;;;6.78;6.07;;;;;;;;;;4974815;28;20401;-66
2022/06/07 05:31:25;;;;;;;7.03;5.60;;;;;;;;;;4976392;28;20027;-69
2022/06/07 05:33:51;;;;;;;10.13;6.97;;;;;;;;;;4960395;28;20027;-64
2022/06/07 05:36:17;;;;;;;8.75;5.80;;;;;;;;;;4976791;28;20120;-67
2022/06/07 05:38:42;;;;;;;9.13;6.18;;;;;;;;;;4978442;28;20030;-69
2022/06/07 05:41:11;;;;;;;7.88;5.55;;;;;;;;;;4979620;28;20362;-69
2022/06/07 05:43:37;;;;;;;8.23;5.32;;;;;;;;;;4976960;28;20117;-70
2022/06/07 05:46:02;;;;;;;9.43;5.10;;;;;;;;;;4962847;28;20105;-67
2022/06/07 05:48:28;;;;;;;12.32;6.03;;;;;;;;;;4954912;28;20050;-66
2022/06/07 05:50:54;;;;;;;6.13;5.38;;;;;;;;;;4957028;28;20033;-70
2022/06/07 05:53:20;;;;;;;7.60;6.80;;;;;;;;;;4953587;28;24230;-74
2022/06/07 05:55:45;;;;;;;13.07;9.13;;;;;;;;;;4961604;28;20034;-69
2022/06/07 05:58:11;;;;;;;14.50;10.07;;;;;;;;;;4978233;28;20029;-67
2022/06/07 06:00:37;;;;;;;17.30;14.07;;;;;;;;;;4977664;28;20038;-65
2022/06/07 06:03:03;;;;;;;18.20;14.23;;;;;;;;;;4978038;28;20504;-66
2022/06/07 06:05:28;;;;;;;10.98;9.07;;;;;;;;;;4975944;28;20022;-67
2022/06/07 06:10:38;;;;;;;11.07;7.75;;;;;;;;;;4967228;28;20037;-67
2022/06/07 06:13:03;;;;;;;8.75;6.45;;;;;;;;;;4962658;28;20030;-69
2022/06/07 06:15:28;;;;;;;10.35;6.93;;;;;;;;;;4967795;28;20411;-67
2022/06/07 06:17:55;;;;;;;10.73;6.95;;;;;;;;;;4979111;28;20038;-68
2022/06/07 06:20:21;;;;;;;9.65;7.63;;;;;;;;;;4977786;28;20118;-67
2022/06/07 06:22:47;;;;;;;10.45;8.68;;;;;;;;;;4977625;28;20031;-64
2022/06/07 06:25:13;;;;;;;10.82;8.85;;;;;;;;;;4958872;28;20101;-67
2022/06/07 06:27:38;;;;;;;12.50;8.65;;;;;;;;;;4976644;28;20725;-66
2022/06/07 06:30:05;;;;;;;10.00;8.30;;;;;;;;;;4956295;28;20018;-67
2022/06/07 06:32:31;;;;;;;8.88;7.55;;;;;;;;;;4976330;28;20045;-69
2022/06/07 06:34:56;;;;;;;9.88;7.72;;;;;;;;;;4978553;28;21048;-69
2022/06/07 06:37:21;;;;;;;6.70;6.07;;;;;;;;;;4974499;28;20099;-68
2022/06/07 06:39:47;;;;;;;8.68;6.45;;;;;;;;;;4973081;28;20493;-70
2022/06/07 06:42:12;;;;;;;9.23;6.93;;;;;;;;;;4976568;28;20027;-73
2022/06/07 06:44:38;;;;;;;9.98;7.55;;;;;;;;;;4976052;28;20045;-68
2022/06/07 06:47:03;;;;;;;10.05;6.40;;;;;;;;;;4974401;28;20024;-69
2022/06/07 06:49:29;;;;;;;8.50;7.13;;;;;;;;;;4977213;28;20033;-71
2022/06/07 06:51:56;;;;;;;8.27;7.07;;;;;;;;;;4977264;28;20490;-71
2022/06/07 06:54:22;;;;;;;10.75;7.90;;;;;;;;;;4978531;28;20027;-68
2022/06/07 06:56:47;;;;;;;8.75;6.90;;;;;;;;;;4974279;28;20537;-67
2022/06/07 06:59:13;;;;;;;9.77;7.38;;;;;;;;;;4977654;28;20188;-68
2022/06/07 07:01:39;;;;;;;9.48;7.45;;;;;;;;;;4977108;28;20023;-70
2022/06/07 07:04:16;;;;;;;10.98;7.53;;;;;;;;;;4977350;28;20061;-70
2022/06/07 07:06:41;;;;;;;8.27;6.93;;;;;;;;;;4974857;28;20026;-68
2022/06/07 07:09:07;;;;;;;9.75;6.28;;;;;;;;;;4957452;28;20029;-67
2022/06/07 07:11:35;;;;;;;9.02;6.97;;;;;;;;;;4953988;28;20086;-74
2022/06/07 07:14:01;;;;;;;7.53;6.40;;;;;;;;;;4954904;28;20027;-68
2022/06/07 07:16:29;;;;;;;6.45;5.85;;;;;;;;;;4955599;28;20039;-69
2022/06/07 07:18:55;;;;;;;8.57;5.97;;;;;;;;;;4955741;28;20039;-66
2022/06/07 07:21:22;;;;;;;8.02;6.40;;;;;;;;;;4957239;28;20023;-68
2022/06/07 07:23:48;;;;;;;7.95;6.18;;;;;;;;;;4967864;28;20030;-68
2022/06/07 07:26:15;;;;;;;7.80;7.00;;;;;;;;;;4975851;28;20414;-66
2022/06/07 07:28:41;;;;;;;8.40;6.82;;;;;;;;;;4967831;28;20038;-66
2022/06/07 07:31:09;;;;;;;11.13;7.10;;;;;;;;;;4960135;28;20477;-68
2022/06/07 07:33:35;;;;;;;6.95;5.95;;;;;;;;;;4971870;28;20042;-72
2022/06/07 07:36:01;;;;;;;7.35;6.07;;;;;;;;;;4970514;28;20093;-68
2022/06/07 07:38:26;;;;;;;7.85;6.90;;;;;;;;;;4970608;28;20346;-70
2022/06/07 07:40:52;;;;;;;7.57;6.13;;;;;;;;;;4973083;28;20100;-68
2022/06/07 07:43:18;;;;;;;10.00;7.65;;;;;;;;;;4954227;28;20042;-72
2022/06/07 07:45:44;;;;;;;7.07;5.53;;;;;;;;;;4973280;28;20125;-67
2022/06/07 07:48:09;;;;;;;6.85;5.72;;;;;;;;;;4976293;28;20670;-68
2022/06/07 07:50:35;;;;;;;7.03;6.20;;;;;;;;;;4980410;28;20026;-69
2022/06/07 07:53:01;;;;;;;8.32;6.50;;;;;;;;;;4978961;28;20033;-67
2022/06/07 07:55:26;;;;;;;6.85;6.22;;;;;;;;;;4977230;28;20035;-68
2022/06/07 07:57:51;;;;;;;6.22;5.63;;;;;;;;;;4980257;28;20046;-71
2022/06/07 08:00:17;;;;;;;6.05;5.45;;;;;;;;;;4976654;28;20420;-70
2022/06/07 08:02:42;;;;;;;6.18;5.57;;;;;;;;;;4965065;28;20446;-65
2022/06/07 08:05:09;;;;;;;5.85;5.25;;;;;;;;;;4958259;28;20117;-67
2022/06/07 08:07:34;;;;;;;5.55;5.05;;;;;;;;;;4960762;28;20026;-65
2022/06/07 08:10:01;;;;;;;5.95;5.20;;;;;;;;;;4960340;28;20037;-70
2022/06/07 08:12:27;;;;;;;6.50;4.75;;;;;;;;;;4955898;28;20054;-66
2022/06/07 08:14:52;;;;;;;6.07;4.65;;;;;;;;;;4955837;28;20415;-67
2022/06/07 08:17:17;;;;;;;5.05;4.65;;;;;;;;;;4972004;28;20034;-67
2022/06/07 08:19:43;;;;;;;5.47;4.68;;;;;;;;;;4977276;28;20062;-72
2022/06/07 08:22:09;;;;;;;7.28;4.40;;;;;;;;;;4977503;28;20022;-66
2022/06/07 08:24:35;;;;;;;5.25;4.72;;;;;;;;;;4979118;28;20470;-67
2022/06/07 08:27:00;;;;;;;5.10;4.50;;;;;;;;;;4978933;28;20022;-67
2022/06/07 08:29:25;;;;;;;6.53;4.72;;;;;;;;;;4967254;28;20355;-68
2022/06/07 08:31:51;;;;;;;4.68;4.28;;;;;;;;;;4961554;28;20109;-67
2022/06/07 08:39:44;;;;;;;5.72;4.60;;;;;;;;;;4964559;28;20101;-67
2022/06/07 08:42:13;;;;;;;4.65;4.03;;;;;;;;;;4972657;28;20034;-72
2022/06/07 08:44:56;;;;;;;4.47;4.07;;;;;;;;;;4957891;28;20078;-68
2022/06/07 08:47:41;;;;;;;4.03;3.70;;;;;;;;;;4953814;28;20256;-67
2022/06/07 08:50:17;;;;;;;4.75;4.35;;;;;;;;;;4954264;28;20066;-67
2022/06/07 08:52:42;;;;;;;6.20;4.72;;;;;;;;;;4971437;28;20034;-67
2022/06/07 08:55:11;;;;;;;5.45;4.18;;;;;;;;;;4976870;28;20033;-67
2022/06/07 08:57:37;;;;;;;4.68;4.28;;;;;;;;;;4974282;28;20382;-66
2022/06/07 09:00:15;;;;;;;4.25;3.85;;;;;;;;;;4972917;28;20046;-66
2022/06/07 09:02:48;;;;;;;4.25;3.85;;;;;;;;;;4974639;28;20022;-68
2022/06/07 09:05:15;;;;;;;4.18;3.88;;;;;;;;;;4975825;28;20069;-70
2022/06/07 09:07:41;;;;;;;4.85;3.47;;;;;;;;;;4977987;28;20124;-67
2022/06/07 09:12:59;;;;;;;3.65;2.75;;;;;;;;;;4975075;28;20370;-67
2022/06/07 09:15:25;;;;;;;6.53;3.20;;;;;;;;;;4975479;28;20034;-68
2022/06/07 09:17:55;;;;;;;3.70;3.05;;;;;;;;;;4974041;28;20069;-65
2022/06/07 09:20:22;;;;;;;2.97;2.63;;;;;;;;;;4974665;28;20750;-65
2022/06/07 09:22:54;;;;;;;3.08;2.78;;;;;;;;;;4975955;28;20484;-67
2022/06/07 09:25:37;;;;;;;3.35;3.05;;;;;;;;;;4973972;28;20038;-66
2022/06/07 09:28:05;;;;;;;2.92;2.70;;;;;;;;;;4976524;28;20149;-66
2022/06/07 09:30:35;;;;;;;2.83;2.58;;;;;;;;;;4977577;28;20054;-69
2022/06/07 09:33:27;;;;;;;4.93;2.83;;;;;;;;;;4976070;28;20402;-67
2022/06/07 09:35:55;;;;;;;2.97;2.50;;;;;;;;;;4967165;28;20038;-67
2022/06/07 09:38:31;;;;;;;3.05;2.75;;;;;;;;;;4957824;28;20055;-67
2022/06/07 09:41:02;;;;;;;3.72;2.20;;;;;;;;;;4953295;28;20039;-71
2022/06/07 09:43:28;;;;;;;4.32;2.38;;;;;;;;;;4956254;28;20045;-69
2022/06/07 09:45:56;;;;;;;2.72;2.53;;;;;;;;;;4960037;28;20102;-69
2022/06/07 09:48:28;;;;;;;8.75;2.72;;;;;;;;;;4963556;28;20141;-69
2022/06/07 09:51:00;;;;;;;3.58;2.45;;;;;;;;;;4941115;28;20351;-69
2022/06/07 09:53:26;;;;;;;2.03;1.90;;;;;;;;;;4953533;28;20039;-66
2022/06/07 09:56:04;;;;;;;3.70;2.67;;;;;;;;;;4955542;28;20024;-67
2022/06/07 09:58:29;;;;;;;2.45;2.20;;;;;;;;;;4957667;28;20338;-67
2022/06/07 10:00:57;;;;;;;2.17;2.08;;;;;;;;;;4976534;28;20034;-68
2022/06/07 10:03:41;;;;;;;2.50;2.30;;;;;;;;;;4970915;28;20042;-70
2022/06/07 10:06:11;;;;;;;4.20;2.60;;;;;;;;;;4942123;28;20280;-69
2022/06/07 10:08:55;;;;;;;3.53;2.00;;;;;;;;;;4971163;28;20097;-72
2022/06/07 10:11:35;;;;;;;3.38;2.38;;;;;;;;;;4974877;28;20035;-70
2022/06/07 10:14:14;;;;;;;2.08;1.90;;;;;;;;;;4976411;28;20082;-68
2022/06/07 10:17:02;;;;;;;2.58;2.35;;;;;;;;;;4972657;28;20023;-68
2022/06/07 10:19:54;;;;;;;1.90;1.80;;;;;;;;;;4975767;28;20034;-67
2022/06/07 10:22:19;;;;;;;2.65;1.80;;;;;;;;;;4955816;28;20073;-67
2022/06/07 10:25:00;;;;;;;3.03;2.38;;;;;;;;;;4972008;28;20076;-73
2022/06/07 10:27:46;;;;;;;2.45;2.25;;;;;;;;;;4975308;28;20335;-68
2022/06/07 10:30:12;;;;;;;2.08;1.98;;;;;;;;;;4971955;28;20038;-69
2022/06/07 10:32:46;;;;;;;1.67;1.58;;;;;;;;;;4974737;28;20093;-68
2022/06/07 10:35:20;;;;;;;1.98;1.77;;;;;;;;;;4975469;28;20034;-69
2022/06/07 10:37:45;;;;;;;2.40;2.20;;;;;;;;;;4975605;28;20102;-68
2022/06/07 10:40:29;;;;;;;2.00;1.90;;;;;;;;;;4977491;28;20034;-68
2022/06/07 10:43:24;;;;;;;4.05;2.28;;;;;;;;;;4966095;28;20066;-68
2022/06/07 10:45:54;;;;;;;2.60;1.92;;;;;;;;;;4910957;28;20118;-69
2022/06/07 10:48:19;;;;;;;2.50;2.30;;;;;;;;;;4983688;28;20431;-68
2022/06/07 10:50:47;;;;;;;2.83;2.20;;;;;;;;;;4982277;28;20107;-70
2022/06/07 10:53:18;;;;;;;2.53;2.33;;;;;;;;;;4974034;28;20073;-66
2022/06/07 10:55:49;;;;;;;1.63;1.40;;;;;;;;;;4973133;28;20030;-73
2022/06/07 10:58:32;;;;;;;1.75;1.65;;;;;;;;;;4962485;28;20038;-73
2022/06/07 11:00:57;;;;;;;3.88;2.10;;;;;;;;;;4956083;28;20040;-68
2022/06/07 11:03:35;;;;;;;1.80;1.70;;;;;;;;;;4956509;28;20438;-72
2022/06/07 11:09:20;;;;;;;1.80;1.70;;;;;;;;;;4955304;28;20061;-70
2022/06/07 11:11:46;;;;;;;1.83;1.73;;;;;;;;;;4949573;28;20162;-70
2022/06/07 11:14:21;;;;;;;3.53;2.33;;;;;;;;;;4942138;28;20446;-69
2022/06/07 11:16:56;;;;;;;2.40;2.20;;;;;;;;;;4953629;28;20030;-68
2022/06/07 11:19:22;;;;;;;2.63;1.98;;;;;;;;;;4955686;28;20347;-68
2022/06/07 11:21:49;;;;;;;2.00;1.90;;;;;;;;;;4955123;28;20050;-76
2022/06/07 11:24:16;;;;;;;4.72;1.77;;;;;;;;;;4953679;28;20030;-71
2022/06/07 11:26:50;;;;;;;1.70;1.60;;;;;;;;;;4957992;28;20026;-74
2022/06/07 11:29:22;;;;;;;5.40;2.05;;;;;;;;;;4961426;28;20054;-69
2022/06/07 11:31:48;;;;;;;4.07;2.15;;;;;;;;;;4957143;28;20027;-67
2022/06/07 11:34:24;;;;;;;2.25;2.05;;;;;;;;;;4957629;28;20031;-69
2022/06/07 11:36:51;;;;;;;4.68;2.00;;;;;;;;;;4958891;28;20059;-66
2022/06/07 11:39:28;;;;;;;3.97;2.50;;;;;;;;;;4958942;28;20050;-71
2022/06/07 11:41:57;;;;;;;2.40;2.22;;;;;;;;;;4959086;28;20386;-67
2022/06/07 11:44:30;;;;;;;2.20;1.88;;;;;;;;;;4960158;28;20222;-74
2022/06/07 11:47:02;;;;;;;2.22;2.10;;;;;;;;;;4958445;28;20023;-69
2022/06/07 11:49:27;;;;;;;2.30;2.17;;;;;;;;;;4960280;28;20026;-67
2022/06/07 11:51:57;;;;;;;1.75;1.65;;;;;;;;;;4957943;28;20031;-74
2022/06/07 11:54:30;;;;;;;1.88;1.73;;;;;;;;;;4961585;28;20046;-69
2022/06/07 11:56:57;;;;;;;2.00;1.90;;;;;;;;;;4959320;28;21191;-68
2022/06/07 11:59:23;;;;;;;1.88;1.77;;;;;;;;;;4955648;28;20042;-71
2022/06/07 12:02:08;;;;;;;2.00;1.90;;;;;;;;;;4960916;28;20453;-68
2022/06/07 12:04:45;;;;;;;1.80;1.70;;;;;;;;;;4956886;28;20044;-68
2022/06/07 12:07:23;;;;;;;1.90;1.80;;;;;;;;;;4977229;28;20073;-67
2022/06/07 12:09:51;;;;;;;2.42;1.75;;;;;;;;;;4979994;28;20058;-70
2022/06/07 12:12:17;;;;;;;2.67;2.05;;;;;;;;;;4979929;28;20502;-77
2022/06/07 12:14:43;;;;;;;2.05;1.83;;;;;;;;;;4979834;28;20034;-71
2022/06/07 12:17:20;;;;;;;1.70;1.60;;;;;;;;;;4976778;28;20023;-68
2022/06/07 12:19:47;;;;;;;2.40;2.05;;;;;;;;;;4979316;28;20030;-67
2022/06/07 12:22:14;;;;;;;2.13;1.92;;;;;;;;;;4978265;28;20451;-70
2022/06/07 12:24:45;;;;;;;5.22;1.55;;;;;;;;;;4980302;28;20438;-68
2022/06/07 12:27:21;;;;;;;1.70;1.60;;;;;;;;;;4978703;28;20022;-73
2022/06/07 12:29:46;;;;;;;2.10;1.60;;;;;;;;;;4979441;28;20506;-71
2022/06/07 12:32:19;;;;;;;2.60;1.75;;;;;;;;;;4976886;28;20137;-69
2022/06/07 12:34:44;;;;;;;1.90;1.67;;;;;;;;;;4977927;28;20370;-72
2022/06/07 12:37:09;;;;;;;1.50;1.40;;;;;;;;;;4976898;28;20034;-68
2022/06/07 12:39:49;;;;;;;1.90;1.70;;;;;;;;;;4980008;28;20044;-68
2022/06/07 12:42:16;;;;;;;1.83;1.73;;;;;;;;;;4979774;28;20062;-75
2022/06/07 12:44:48;;;;;;;3.47;1.85;;;;;;;;;;4978904;28;20074;-74
2022/06/07 12:47:34;;;;;;;1.70;1.60;;;;;;;;;;4979869;28;20037;-68
2022/06/07 12:50:00;;;;;;;2.55;1.83;;;;;;;;;;4975872;28;20023;-68
2022/06/07 12:52:27;;;;;;;3.28;1.92;;;;;;;;;;4954224;28;20038;-69
2022/06/07 12:54:54;;;;;;;1.92;1.83;;;;;;;;;;4971845;28;20054;-67
2022/06/07 12:57:21;;;;;;;3.05;1.58;;;;;;;;;;4970532;28;20094;-72
2022/06/07 13:00:01;;;;;;;1.92;1.73;;;;;;;;;;4968384;28;20058;-73
2022/06/07 13:02:31;;;;;;;1.55;1.45;;;;;;;;;;4963573;28;20181;-72
2022/06/07 13:04:57;;;;;;;3.00;2.25;;;;;;;;;;4970447;28;20026;-70
2022/06/07 13:07:27;;;;;;;2.85;1.80;;;;;;;;;;4969485;28;20026;-73
2022/06/07 13:10:03;;;;;;;2.45;1.83;;;;;;;;;;4970596;28;20018;-71
2022/06/07 13:12:30;;;;;;;2.97;1.90;;;;;;;;;;4971143;28;20030;-68
2022/06/07 13:14:57;;;;;;;3.42;1.65;;;;;;;;;;4971391;28;20050;-70
2022/06/07 13:17:31;;;;;;;1.80;1.70;;;;;;;;;;4973859;28;20022;-69
2022/06/07 13:19:57;;;;;;;1.98;1.65;;;;;;;;;;4971651;28;20427;-75
2022/06/07 13:22:23;;;;;;;2.67;1.85;;;;;;;;;;4967547;28;20044;-69
2022/06/07 13:24:53;;;;;;;2.03;1.70;;;;;;;;;;4959722;28;20106;-70
2022/06/07 13:27:37;;;;;;;2.78;2.00;;;;;;;;;;4966572;28;20050;-72
2022/06/07 13:30:03;;;;;;;1.95;1.60;;;;;;;;;;4954364;28;20090;-71
2022/06/07 13:32:29;;;;;;;2.15;1.95;;;;;;;;;;4964598;28;20038;-71
2022/06/07 13:34:55;;;;;;;2.30;1.85;;;;;;;;;;4975980;28;20082;-72
2022/06/07 13:37:22;;;;;;;2.85;1.95;;;;;;;;;;4966477;28;20022;-70
2022/06/07 13:39:59;;;;;;;3.10;2.03;;;;;;;;;;4971632;28;20446;-70
2022/06/07 13:42:26;;;;;;;2.78;1.70;;;;;;;;;;4966453;28;20113;-70
2022/06/07 13:44:57;;;;;;;2.05;1.70;;;;;;;;;;4968643;28;20042;-72
2022/06/07 13:47:28;;;;;;;1.70;1.38;;;;;;;;;;4970531;28;20037;-71
2022/06/07 13:55:50;;;;;;;1.63;1.52;;;;;;;;;;4955582;28;20349;-70
2022/06/07 13:58:16;;;;;;;1.92;1.73;;;;;;;;;;4958886;28;20045;-70
2022/06/07 14:00:42;;;;;;;2.03;1.80;;;;;;;;;;4973432;28;20023;-69
2022/06/07 14:03:30;;;;;;;1.85;1.67;;;;;;;;;;4971004;28;20203;-70
2022/06/07 14:05:56;;;;;;;1.80;1.70;;;;;;;;;;4949161;29;20053;-70
2022/06/07 14:08:21;;;;;;;1.65;1.55;;;;;;;;;;4953809;29;20027;-71
2022/06/07 14:10:46;;;;;;;1.80;1.70;;;;;;;;;;4970237;28;20127;-69
2022/06/07 14:13:11;;;;;;;2.08;1.92;;;;;;;;;;4974845;28;20285;-70
2022/06/07 14:15:37;;;;;;;2.37;1.70;;;;;;;;;;4973168;28;20089;-69
2022/06/07 14:18:06;;;;;;;1.98;1.65;;;;;;;;;;4968799;28;20257;-69
2022/06/07 14:20:34;;;;;;;3.50;1.95;;;;;;;;;;4974817;28;20088;-71
2022/06/07 14:22:59;;;;;;;1.77;1.67;;;;;;;;;;4975145;28;20030;-70
2022/06/07 14:25:27;;;;;;;3.07;1.63;;;;;;;;;;4975527;28;20037;-69
2022/06/07 14:27:53;;;;;;;1.90;1.70;;;;;;;;;;4974929;28;20256;-68
2022/06/07 14:30:20;;;;;;;3.17;1.60;;;;;;;;;;4975058;28;20446;-70
2022/06/07 14:32:46;;;;;;;2.10;1.90;;;;;;;;;;4975049;28;20023;-70
2022/06/07 14:35:17;;;;;;;2.42;1.50;;;;;;;;;;4974283;28;20431;-70
2022/06/07 14:37:42;;;;;;;2.42;1.65;;;;;;;;;;4975049;28;20109;-70
2022/06/07 14:40:16;;;;;;;1.73;1.63;;;;;;;;;;4974846;28;20086;-69
2022/06/07 14:42:43;;;;;;;2.10;1.90;;;;;;;;;;4974890;28;20038;-71
2022/06/07 14:45:12;;;;;;;1.80;1.70;;;;;;;;;;4974974;28;20038;-70
2022/06/07 14:47:38;;;;;;;4.45;1.92;;;;;;;;;;4974688;28;20054;-70
2022/06/07 14:50:03;;;;;;;1.83;1.67;;;;;;;;;;4974942;28;20049;-70
2022/06/07 14:52:29;;;;;;;1.65;1.55;;;;;;;;;;4974197;28;20429;-70
2022/06/07 14:54:54;;;;;;;4.70;1.50;;;;;;;;;;4974197;28;20031;-70
2022/06/07 14:57:21;;;;;;;3.30;1.40;;;;;;;;;;4974616;28;20054;-69
2022/06/07 14:59:46;;;;;;;2.53;1.45;;;;;;;;;;4973835;28;20245;-69
2022/06/07 15:02:18;;;;;;;1.75;1.65;;;;;;;;;;4974456;28;20038;-69
2022/06/07 15:04:50;;;;;;;1.92;1.55;;;;;;;;;;4974757;28;20114;-68
2022/06/07 15:07:26;;;;;;;2.33;1.80;;;;;;;;;;4974936;28;20363;-70
2022/06/07 15:09:51;;;;;;;2.47;2.00;;;;;;;;;;4974191;28;20027;-69
2022/06/07 15:12:17;;;;;;;2.50;2.30;;;;;;;;;;4974292;28;20034;-69